createdAt,value
2023-05-15T00:07:36.794Z,65.32
2023-05-15T00:18:02.570Z,65.22
2023-05-15T00:28:28.398Z,65.24
2023-05-15T00:38:54.211Z,64.95
2023-05-15T00:49:23.010Z,64.88
2023-05-15T00:59:51.071Z,64.80
2023-05-15T01:10:18.139Z,65.01
2023-05-15T01:21:19.713Z,65.23
2023-05-15T01:31:51.595Z,65.34
2023-05-15T01:42:20.896Z,65.66
2023-05-15T01:52:51.313Z,65.94
2023-05-15T02:03:17.698Z,66.16
2023-05-15T02:13:44.068Z,66.40
2023-05-15T02:24:09.951Z,66.25
2023-05-15T02:34:44.250Z,66.22
2023-05-15T02:45:13.496Z,66.44
2023-05-15T02:55:39.643Z,66.56
2023-05-15T03:06:05.479Z,66.36
2023-05-15T03:16:31.590Z,66.45
2023-05-15T03:26:57.598Z,66.71
2023-05-15T03:37:23.166Z,66.74
2023-05-15T03:47:49.489Z,66.87
2023-05-15T03:58:15.181Z,66.81
2023-05-15T04:08:41.674Z,67.22
2023-05-15T04:19:07.626Z,67.35
2023-05-15T04:29:33.378Z,67.46
2023-05-15T04:39:59.028Z,67.61
2023-05-15T04:50:25.435Z,67.68
2023-05-15T05:00:51.461Z,67.52
2023-05-15T05:11:16.938Z,67.66
2023-05-15T05:21:42.431Z,67.69
2023-05-15T05:32:08.837Z,67.59
2023-05-15T05:42:34.825Z,67.48
2023-05-15T05:53:01.405Z,67.55
2023-05-15T06:03:28.016Z,67.62
2023-05-15T06:13:53.666Z,67.69
2023-05-15T06:24:19.325Z,67.51
2023-05-15T06:34:45.315Z,67.36
2023-05-15T06:45:12.797Z,67.34
2023-05-15T06:55:38.231Z,67.44
2023-05-15T07:06:03.899Z,67.74
2023-05-15T07:16:29.342Z,67.76
2023-05-15T07:37:40.992Z,67.82
2023-05-15T07:48:18.483Z,68.30
2023-05-15T07:58:44.296Z,68.41
2023-05-15T08:09:10.195Z,68.49
2023-05-15T08:19:36.028Z,68.17
2023-05-15T08:30:01.599Z,68.42
2023-05-15T08:50:59.430Z,69.24
2023-05-15T09:01:25.381Z,69.47
2023-05-15T09:11:52.165Z,69.65
2023-05-15T09:22:23.461Z,69.98
2023-05-15T09:32:51.882Z,70.24
2023-05-15T09:43:18.623Z,70.28
2023-05-15T09:53:44.729Z,70.66
2023-05-15T10:04:11.693Z,70.54
2023-05-15T10:14:37.993Z,70.78
2023-05-15T10:25:10.380Z,71.01
2023-05-15T10:35:36.944Z,70.91
2023-05-15T10:46:04.981Z,70.75
2023-05-15T10:56:33.055Z,70.58
2023-05-15T11:07:18.318Z,70.85
2023-05-15T11:18:08.086Z,71.19
2023-05-15T11:28:42.242Z,71.27
2023-05-15T11:39:16.264Z,71.27
2023-05-15T11:49:42.255Z,70.75
2023-05-15T12:00:11.500Z,71.09
2023-05-15T12:10:43.689Z,71.97
2023-05-15T12:21:11.205Z,72.03
2023-05-15T12:31:38.586Z,71.52
2023-05-15T12:42:06.460Z,71.21
2023-05-15T12:52:32.359Z,70.18
2023-05-15T13:02:59.205Z,69.62
2023-05-15T13:13:24.780Z,69.35
2023-05-15T13:23:50.522Z,68.90
2023-05-15T13:34:16.361Z,67.58
2023-05-15T13:44:42.205Z,66.59
2023-05-15T13:55:10.892Z,65.93
2023-05-15T14:05:37.066Z,65.10
2023-05-15T14:16:02.963Z,64.19
2023-05-15T14:26:28.735Z,63.75
2023-05-15T14:36:54.342Z,63.11
2023-05-15T14:47:19.639Z,61.51
2023-05-15T14:57:49.257Z,60.25
2023-05-15T15:08:16.035Z,60.18
2023-05-15T15:18:42.278Z,59.78
2023-05-15T15:29:08.691Z,58.83
2023-05-15T15:39:35.350Z,57.91
2023-05-15T15:50:01.144Z,57.28
2023-05-15T16:00:27.245Z,57.28
2023-05-15T16:10:53.920Z,57.26
2023-05-15T16:21:19.997Z,57.65
2023-05-15T16:31:47.049Z,58.50
2023-05-15T16:42:12.766Z,58.81
2023-05-15T16:52:39.797Z,58.86
2023-05-15T17:03:05.908Z,58.93
2023-05-15T17:13:31.921Z,58.95
2023-05-15T17:23:57.934Z,59.18
2023-05-15T17:34:23.936Z,59.69
2023-05-15T17:44:50.065Z,59.95
2023-05-15T17:55:16.530Z,60.54
2023-05-15T18:05:42.940Z,60.93
2023-05-15T18:16:09.046Z,61.43
2023-05-15T18:26:35.042Z,62.01
2023-05-15T18:37:00.977Z,62.56
2023-05-15T18:47:27.359Z,63.07
2023-05-15T18:57:53.310Z,63.35
2023-05-15T19:08:18.949Z,63.73
2023-05-15T19:18:45.172Z,63.91
2023-05-15T19:29:11.800Z,64.02
2023-05-15T19:39:37.226Z,64.32
2023-05-15T19:50:03.365Z,64.47
2023-05-15T20:00:29.379Z,64.77
2023-05-15T20:10:55.335Z,65.08
2023-05-15T20:21:21.066Z,65.32
2023-05-15T20:31:47.636Z,65.53
2023-05-15T20:42:13.421Z,65.66
2023-05-15T20:52:39.347Z,65.71
2023-05-15T21:03:05.550Z,65.82
2023-05-15T21:13:31.687Z,65.54
2023-05-15T21:23:57.447Z,65.59
2023-05-15T21:34:23.096Z,65.45
2023-05-15T21:44:49.142Z,65.81
2023-05-15T21:55:15.423Z,66.00
2023-05-15T22:05:41.596Z,66.05
2023-05-15T22:16:09.599Z,65.98
2023-05-15T22:26:35.591Z,66.37
2023-05-15T22:37:01.403Z,66.57
2023-05-15T22:47:28.396Z,66.46
2023-05-15T22:57:53.952Z,65.57
2023-05-15T23:08:20.079Z,65.37
2023-05-15T23:18:46.402Z,64.92
2023-05-15T23:29:12.266Z,64.77
2023-05-15T23:39:38.009Z,64.54
2023-05-15T23:50:03.885Z,64.18
